Sant Hilari Sacalm





Hora UTC 13:30
Temperatura 9.8 ºC
Sòl 15 cm 13.6 ºC
Humitat 74.5 %
Pressió 1023.4 hPa
Pluja 0.0 mm
Velocitat vent 7.0 km/h
Direcció vent E
Radiació solar 575.2 W/m²

Dades diàries 2021-03-01



Hora UTC (hivern +1h; estiu +2h)
Temperatura (ºC) Humitat (%) Pressió (hPa) Velocitat vent (km/h) Precipitació (mm) Radiació solar (W/m²)
Hora UTC Aire Sòl 15 cm Humitat Pressió Vel. Dir. Vel. Max Dir. Intent. màx 5 min. Rad. Sol.
00:05 5.9 5.4 95.7 1023.6 6.7 NE 6.7 NE 0.0 0.1
00:10 5.9 5.4 95.5 1023.6 2.5 NE 8.8 NNE 0.0 0.1
00:15 5.8 5.3 95.2 1023.6 2.2 NNE 8.8 NNE 0.0 0.1
00:20 5.8 5.2 94.8 1023.6 3.5 NE 8.8 NE 0.0 0.1
00:25 5.8 5.1 94.2 1023.6 2.7 NNE 8.8 N 0.0 0.1
00:30 5.7 5.0 93.7 1023.6 2.8 NNE 8.8 NNE 0.0 0.1
00:35 5.7 5.0 93.6 1023.6 3.3 NNE 8.8 ENE 0.0 0.1
00:40 5.7 4.9 93.6 1023.6 5.2 NNE 14.2 NE 0.0 0.1
00:45 5.7 5.0 93.2 1023.6 4.8 NNE 14.2 NNE 0.0 0.1
00:50 5.8 5.1 92.1 1023.6 6.6 NNE 14.2 NNE 0.0 0.1
00:55 5.9 5.1 91.8 1023.6 6.7 NNE 16.9 ENE 0.0 0.1
01:00 5.9 5.2 91.6 1023.5 6.5 NE 14.2 NE 0.0 0.1
01:05 5.9 5.1 91.5 1023.6 6.4 NE 14.2 NE 0.0 0.1
01:10 5.8 5.0 91.7 1023.5 8.4 NNE 16.9 NE 0.0 0.1
01:15 5.8 5.0 91.7 1023.5 5.3 NNE 14.2 NE 0.0 0.1
01:20 5.7 4.8 91.9 1023.5 5.6 NNE 14.2 NNE 0.0 0.1
01:25 5.7 4.7 92.0 1023.5 5.1 NNE 11.5 NNE 0.0 0.1
01:30 5.6 4.5 92.1 1023.5 4.2 NNE 11.5 NE 0.0 0.1
01:35 5.5 4.3 92.4 1023.5 5.9 NNE 14.2 NE 0.0 0.1
01:40 5.5 4.1 92.9 1023.5 4.7 NNE 11.5 ENE 0.0 0.1
01:45 5.4 4.0 93.0 1023.6 3.1 NNE 8.8 NNE 0.0 0.1
01:50 5.5 4.1 93.1 1023.6 2.7 NE 6.1 NE 0.0 0.1
01:55 5.5 4.1 93.2 1023.6 0.8 NNE 6.1 NE 0.0 0.1
02:00 5.4 4.1 93.3 1023.6 1.4 NNE 6.1 NNW 0.0 0.1
02:05 5.4 4.1 93.5 1023.6 1.9 N 6.1 NNW 0.0 0.1
02:10 5.3 4.0 93.6 1023.6 3.4 NNE 8.8 NE 0.0 0.1
02:15 5.2 3.8 93.9 1023.5 3.8 NNE 8.8 NNE 0.0 0.1
02:20 5.1 3.7 94.4 1023.5 4.5 NNE 11.5 NNE 0.0 0.1
02:25 5.1 3.6 94.5 1023.4 4.0 NNE 11.5 NNE 0.0 0.1
02:30 5.2 3.8 94.6 1023.5 4.6 NNE 11.5 NNE 0.0 0.1
02:35 5.3 4.0 94.6 1023.5 3.7 NE 11.5 NE 0.0 0.1
02:40 5.3 4.2 94.6 1023.5 4.2 NNE 8.8 NE 0.0 0.1
02:45 5.4 4.4 94.7 1023.4 4.0 NNE 11.5 NNE 0.0 0.1
02:50 5.4 4.4 94.7 1023.5 1.8 NNE 8.8 ENE 0.0 0.1
02:55 5.4 4.3 94.6 1023.5 3.0 NE 11.5 ENE 0.0 0.1
03:00 5.4 4.3 94.6 1023.4 5.5 NNE 14.2 NE 0.0 0.1
03:05 5.4 4.3 94.3 1023.4 5.1 NE 14.2 ENE 0.0 0.1
03:10 5.4 4.5 94.2 1023.5 5.8 NE 11.5 NE 0.0 0.1
03:15 5.4 4.5 94.1 1023.4 2.5 NE 8.8 NNE 0.0 0.1
03:20 5.4 4.5 94.1 1023.4 5.0 NNE 11.5 NE 0.0 0.1
03:25 5.4 4.6 94.1 1023.4 4.7 NNE 11.5 NE 0.0 0.1
03:30 5.4 4.6 94.0 1023.4 4.8 NNE 16.9 NNE 0.0 0.1
03:35 5.4 4.6 93.6 1023.4 6.9 NE 14.2 NE 0.0 0.1
03:40 5.4 4.2 93.1 1023.5 6.4 NNE 14.2 NE 0.0 0.1
03:45 5.2 3.7 92.4 1023.5 4.8 NNE 11.5 NNE 0.0 0.1
03:50 5.0 3.3 92.6 1023.5 4.2 NNE 8.8 NNE 0.0 0.1
03:55 4.9 2.9 93.5 1023.4 1.6 N 8.8 N 0.0 0.1
04:00 4.8 2.9 94.1 1023.4 1.3 NNE 6.1 NE 0.0 0.1
04:05 4.9 3.0 94.0 1023.4 0.6 ENE 6.1 NE 0.0 0.1
04:10 4.9 3.1 93.4 1023.4 1.2 NNE 8.8 NNE 0.0 0.1
04:15 5.1 3.3 92.9 1023.4 0.0 NNW 3.4 N 0.0 0.1
04:20 5.2 3.4 92.2 1023.4 0.1 N 3.4 NNW 0.0 0.1
04:25 5.3 3.6 91.5 1023.4 1.5 NNE 6.1 NE 0.0 0.1
04:30 5.4 3.8 90.8 1023.4 0.9 NNE 6.1 ENE 0.0 0.1
04:35 5.4 4.0 90.5 1023.4 3.5 NNE 11.5 NE 0.0 0.1
04:40 5.5 4.1 90.3 1023.4 4.6 NNE 16.9 N 0.0 0.1
04:45 5.5 4.2 90.3 1023.4 9.2 NNE 19.6 NE 0.0 0.1
04:50 5.5 4.2 90.5 1023.4 9.7 N 19.6 NNE 0.0 0.1
04:55 5.5 4.2 90.4 1023.4 5.8 NNE 14.2 NE 0.0 0.1
05:00 5.6 4.2 90.2 1023.5 3.7 NNE 8.8 NNE 0.0 0.1
05:05 5.6 4.3 89.8 1023.5 3.7 NNE 6.1 NE 0.0 0.1
05:10 5.7 4.4 89.4 1023.5 1.1 NNE 6.1 NNE 0.0 0.1
05:15 5.7 4.5 89.2 1023.6 1.6 NE 6.1 NNE 0.0 0.1
05:20 5.8 4.7 88.7 1023.5 2.2 N 6.1 ENE 0.0 0.1
05:25 5.8 4.8 88.5 1023.5 2.7 NNE 6.1 NNE 0.0 0.1
05:30 5.8 4.8 88.7 1023.6 1.8 NNE 6.1 NNE 0.0 0.1
05:35 5.8 4.9 88.3 1023.5 1.7 NNE 6.1 NNE 0.0 0.1
05:40 5.9 4.9 88.1 1023.5 1.9 NE 6.1 ENE 0.0 0.1
05:45 5.9 5.0 87.9 1023.5 3.1 NNE 8.8 ESE 0.0 0.1
05:50 5.9 5.0 88.2 1023.5 2.2 NNE 6.1 N 0.0 0.1
05:55 5.8 4.9 88.2 1023.5 0.9 NNE 6.1 NE 0.0 0.1
06:00 5.8 4.8 88.5 1023.6 1.6 NNE 6.1 ENE 0.0 0.1
06:05 5.8 4.8 88.4 1023.6 1.7 N 6.1 N 0.0 0.1
06:10 5.8 4.8 88.5 1023.6 1.7 NNE 6.1 NNE 0.0 0.2
06:15 5.8 4.8 88.6 1023.5 1.2 NNE 6.1 NE 0.0 0.3
06:20 5.8 4.8 88.8 1023.5 0.3 N 3.4 N 0.0 0.7
06:25 5.8 4.8 88.8 1023.5 1.0 NE 6.1 NE 0.0 0.7
06:30 5.8 4.9 88.8 1023.5 2.0 NNE 6.1 NE 0.0 1.3
06:35 5.9 5.0 88.6 1023.5 1.5 N 6.1 NNE 0.0 3.3
06:40 5.8 5.1 89.6 1023.5 2.0 N 6.1 N 0.0 4.5
06:45 5.7 5.1 90.1 1023.6 4.6 N 8.8 N 0.0 7.0
06:50 5.9 5.2 89.5 1023.6 1.7 NNE 6.1 NNE 0.0 8.8
06:55 5.9 5.3 89.4 1023.6 1.6 NE 6.1 NNE 0.0 7.5
07:00 6.1 5.4 89.1 1023.7 2.9 E 8.8 ENE 0.0 8.3
07:05 6.2 5.5 88.8 1023.7 1.5 NNE 6.1 E 0.0 10.3
07:10 6.1 5.6 89.3 1023.8 2.1 NE 8.8 ENE 0.0 18.0
07:15 6.2 5.7 89.7 1023.8 3.2 NNE 8.8 NE 0.0 19.2
07:20 6.2 5.8 89.5 1023.9 3.5 NE 8.8 NE 0.0 20.0
07:25 6.3 5.9 90.0 1023.9 3.3 N 11.5 N 0.0 19.6
07:30 6.3 6.0 90.5 1023.9 3.9 N 11.5 NW 0.0 24.8
07:35 6.4 6.2 90.3 1023.9 4.4 N 8.8 NNE 0.0 28.8
07:40 6.5 6.3 90.2 1024.0 2.1 N 6.1 NNW 0.0 34.4
07:45 6.6 6.4 89.5 1024.0 2.7 NE 11.5 ENE 0.0 36.6
07:50 6.6 6.5 88.9 1024.0 2.9 NE 11.5 N 0.0 33.1
07:55 6.6 6.6 88.7 1024.0 2.3 NE 8.8 NE 0.0 46.7
08:00 6.7 6.7 88.7 1024.0 1.6 E 6.1 ENE 0.0 40.7
08:05 6.7 6.8 88.4 1024.0 2.6 E 8.8 E 0.0 47.3
08:10 6.7 6.9 89.0 1024.0 3.3 NNE 8.8 N 0.0 48.2
08:15 6.7 6.9 90.1 1023.9 6.7 N 14.2 NNE 0.0 53.8
08:20 6.8 7.2 90.3 1023.9 4.4 NNE 11.5 NE 0.0 105.4
08:25 6.9 7.4 89.4 1023.9 5.6 NNE 14.2 NNE 0.0 85.4
08:30 7.0 7.6 88.7 1023.9 5.1 N 11.5 N 0.0 104.7
08:35 7.1 7.8 88.3 1023.9 5.5 N 14.2 NNE 0.0 83.4
08:40 7.1 7.8 88.1 1024.0 5.5 NNE 11.5 NE 0.0 93.1
08:45 7.2 8.0 88.2 1023.9 3.6 NNE 8.8 NNE 0.0 98.6
08:50 7.2 8.1 88.2 1023.9 4.1 NNE 8.8 NE 0.0 91.5
08:55 7.2 8.2 88.2 1023.9 5.8 NNE 11.5 NE 0.0 96.7
09:00 7.2 8.3 88.4 1024.0 5.0 NNE 8.8 N 0.0 137.3
09:05 7.3 8.7 88.7 1024.0 2.5 NNE 8.8 NNE 0.0 155.5
09:10 7.5 9.1 88.4 1024.0 4.6 NE 11.5 NE 0.0 159.1
09:15 7.5 9.1 88.8 1024.0 7.6 NNE 14.2 NNE 0.0 137.5
09:20 7.5 9.0 88.9 1024.1 4.8 NE 11.5 NNW 0.0 136.0
09:25 7.5 9.0 89.3 1024.1 3.1 NE 8.8 NE 0.0 96.0
09:30 7.5 8.9 89.4 1024.1 5.7 NE 11.5 ENE 0.0 106.0
09:35 7.3 8.7 90.0 1024.1 2.7 NNE 8.8 N 0.0 84.5
09:40 7.4 8.7 90.4 1024.1 3.4 N 8.8 N 0.0 70.9
09:45 7.3 8.5 90.5 1024.1 2.6 NNE 8.8 NE 0.0 77.4
09:50 7.3 8.3 90.9 1024.1 5.0 NNE 8.8 N 0.0 69.2
09:55 7.2 8.1 91.1 1024.2 4.1 NE 11.5 NE 0.0 67.1
10:00 7.1 8.2 92.5 1024.2 5.5 NE 11.5 NE 0.0 149.7
10:05 7.4 8.7 92.4 1024.2 2.5 NE 8.8 E 0.0 174.7
10:10 7.8 9.4 91.1 1024.2 5.6 NNE 11.5 NNE 0.0 217.6
10:15 8.0 10.0 88.5 1024.1 5.5 NE 11.5 NNE 0.0 250.7
10:20 8.1 10.3 86.9 1024.2 6.1 NE 16.9 NE 0.0 210.2
10:25 8.3 10.5 86.3 1024.2 5.7 NE 14.2 NE 0.0 162.6
10:30 8.3 10.4 85.4 1024.1 5.2 NE 11.5 ENE 0.0 168.1
10:35 8.4 10.6 85.1 1024.2 3.4 NE 11.5 E 0.0 134.3
10:40 8.2 10.1 85.7 1024.2 6.1 NE 11.5 NE 0.0 138.8
10:45 8.2 10.0 85.6 1024.2 5.9 NE 11.5 ENE 0.0 176.8
10:50 8.3 10.0 84.5 1024.2 8.0 ENE 16.9 ENE 0.0 142.3
10:55 8.1 9.6 84.5 1024.2 6.5 NE 16.9 NE 0.0 134.5
11:00 8.1 9.7 85.1 1024.2 7.4 NE 14.2 NE 0.0 161.3
11:05 8.3 10.0 84.2 1024.2 7.8 NNE 16.9 NNE 0.0 189.5
11:10 8.5 10.4 82.3 1024.2 8.6 NE 14.2 ENE 0.0 247.9
11:15 8.7 10.6 80.8 1024.2 6.6 NNE 14.2 ENE 0.0 135.9
11:20 8.6 10.5 81.7 1024.1 3.7 NE 8.8 ENE 0.0 167.4
11:25 8.7 10.9 81.6 1024.1 8.0 NE 19.6 NNE 0.0 209.5
11:30 8.9 11.0 80.9 1024.1 3.6 NE 11.5 NE 0.0 204.6
11:35 8.9 11.0 81.2 1024.1 7.2 NE 11.5 NNE 0.0 221.0
11:40 9.2 11.7 81.1 1024.0 6.7 N 11.5 NNW 0.0 330.4
11:45 9.5 12.3 78.5 1024.0 6.2 NE 11.5 N 0.0 264.3
11:50 9.1 12.1 83.0 1024.0 5.4 E 14.2 ESE 0.0 208.5
11:55 8.7 11.6 85.8 1024.0 7.3 ESE 16.9 SE 0.0 146.3
12:00 8.5 10.9 84.8 1023.9 7.7 E 16.9 ENE 0.0 129.3
12:05 8.3 10.4 84.1 1024.0 7.9 NE 14.2 NE 0.0 174.8
12:10 8.5 10.5 84.7 1023.9 4.9 NE 14.2 ESE 0.0 163.5
12:15 8.7 10.6 84.5 1023.9 6.0 NNE 19.6 NE 0.0 188.0
12:20 8.9 11.2 84.6 1023.8 5.2 NE 16.9 E 0.0 224.2
12:25 8.9 10.9 83.8 1023.8 5.8 NE 14.2 E 0.0 184.1
12:30 8.7 11.2 85.2 1023.7 7.5 E 16.9 E 0.0 257.5
12:35 8.8 11.1 85.0 1023.6 6.0 ENE 16.9 NE 0.0 159.0
12:40 8.9 11.3 83.0 1023.7 5.1 NE 14.2 NNE 0.0 299.2
12:45 9.3 12.4 80.5 1023.6 3.7 NE 11.5 ESE 0.0 309.3
12:50 9.3 12.0 82.2 1023.6 6.8 E 16.9 ENE 0.0 164.0
12:55 9.1 11.5 83.2 1023.6 7.6 E 14.2 ESE 0.0 199.3
13:00 9.0 11.9 85.3 1023.5 8.2 E 19.6 E 0.0 391.3
13:05 9.2 11.8 82.4 1023.5 6.6 ENE 14.2 ENE 0.0 153.5
13:10 9.2 11.4 81.9 1023.5 6.8 NE 14.2 ENE 0.0 138.3
13:15 9.2 11.5 80.8 1023.5 3.4 NE 11.5 N 0.0 200.9
13:20 9.5 11.8 79.7 1023.4 5.1 NNE 11.5 NNE 0.0 211.8
13:25 9.7 12.1 76.9 1023.4 4.0 NNE 11.5 ENE 0.0 398.0
13:30 9.8 13.6 74.5 1023.4 7.0 E 16.9 E 0.0 575.2
Màxima 10.0 13.6 95.7 1024.2 9.7 N 19.6 E 0.0 575.2
Mínima 4.8 2.9 74.5 1023.4
Total 0.0